Time;durP1;ratioP1;P1;durP2;ratioP2;P2;SDS_P1;SDS_P2;PMS_P1;PMS_P2;Temp;Humidity;BMP_temperature;BMP_pressure;BME280_temperature;BME280_humidity;BME280_pressure;Samples;Min_cycle;Max_cycle;Signal;HPM_P1;HPM_P2
2024/04/10 00:01:01;;;;;;;;;;;21.60;50.70;;;;;;1505977;77;1320;-69
2024/04/10 00:03:05;;;;;;;;;;;21.60;50.70;;;;;;1481027;79;1161;-68
2024/04/10 00:05:07;;;;;;;;;;;21.60;50.70;;;;;;1507229;76;1926;-69
2024/04/10 00:07:10;;;;;;;;;;;21.60;50.70;;;;;;1510171;77;654;-70
2024/04/10 00:09:13;;;;;;;;;;;21.60;50.70;;;;;;1516976;77;1171;-69
2024/04/10 00:11:17;;;;;;;;;;;21.60;50.70;;;;;;1515624;77;564;-68
2024/04/10 00:13:18;;;;;;;;;;;21.60;50.70;;;;;;1535597;75;1958;-70
2024/04/10 00:15:20;;;;;;;;;;;21.50;50.70;;;;;;1522232;77;744;-71
2024/04/10 00:17:22;;;;;;;;;;;21.60;50.70;;;;;;1531810;75;652;-73
2024/04/10 00:19:24;;;;;;;;;;;21.60;50.70;;;;;;1521113;77;1107;-69
2024/04/10 00:21:30;;;;;;;;;;;21.60;50.70;;;;;;1516629;77;778;-71
2024/04/10 00:23:29;;;;;;;;;;;21.60;50.70;;;;;;1532954;75;1611;-67
2024/04/10 00:25:36;;;;;;;;;;;21.60;50.70;;;;;;1522774;76;1926;-70
2024/04/10 00:27:35;;;;;;;;;;;21.70;50.90;;;;;;1525859;76;1615;-73
2024/04/10 00:29:37;;;;;;;;;;;21.60;50.90;;;;;;1566443;74;781;-70
2024/04/10 00:31:39;;;;;;;;;;;21.60;50.90;;;;;;1565172;74;939;-68
2024/04/10 00:33:41;;;;;;;;;;;21.60;50.80;;;;;;1563221;75;738;-68
2024/04/10 00:35:42;;;;;;;;;;;21.60;50.80;;;;;;1559820;74;711;-68
2024/04/10 00:37:45;;;;;;;;;;;21.60;50.90;;;;;;1566686;74;1135;-71
2024/04/10 00:39:47;;;;;;;;;;;21.60;50.80;;;;;;1533235;75;769;-69
2024/04/10 00:41:49;;;;;;;;;;;21.60;50.90;;;;;;1513891;78;1665;-71
2024/04/10 00:43:51;;;;;;;;;;;21.60;50.80;;;;;;1530705;75;781;-70
2024/04/10 00:46:08;;;;;;;;;;;21.60;50.90;;;;;;1518143;77;1940;-69
2024/04/10 00:48:07;;;;;;;;;;;21.60;50.90;;;;;;1515846;77;1623;-69
2024/04/10 00:50:09;;;;;;;;;;;21.60;51.00;;;;;;1523940;77;822;-73
2024/04/10 00:52:11;;;;;;;;;;;21.60;51.00;;;;;;1517152;77;1031;-70
2024/04/10 00:54:13;;;;;;;;;;;21.60;51.00;;;;;;1514239;77;752;-69
2024/04/10 00:56:15;;;;;;;;;;;21.60;50.90;;;;;;1514975;77;1666;-71
2024/04/10 00:58:17;;;;;;;;;;;21.60;51.00;;;;;;1513368;77;1138;-71
2024/04/10 01:00:19;;;;;;;;;;;21.60;51.00;;;;;;1565374;74;729;-68
2024/04/10 01:02:21;;;;;;;;;;;21.60;51.00;;;;;;1572119;74;794;-70
2024/04/10 01:04:22;;;;;;;;;;;21.60;51.00;;;;;;1562962;74;1951;-69
2024/04/10 01:06:30;;;;;;;;;;;21.60;51.00;;;;;;1565112;74;976;-71
2024/04/10 01:08:32;;;;;;;;;;;21.60;51.00;;;;;;1555122;74;1421;-69
2024/04/10 01:10:34;;;;;;;;;;;21.60;51.00;;;;;;1552102;74;771;-69
2024/04/10 01:12:38;;;;;;;;;;;21.60;51.00;;;;;;1555757;74;689;-69
2024/04/10 01:14:40;;;;;;;;;;;21.60;51.00;;;;;;1556678;74;1523;-73
2024/04/10 01:16:41;;;;;;;;;;;21.60;51.00;;;;;;1547851;75;699;-71
2024/04/10 01:18:43;;;;;;;;;;;21.60;51.00;;;;;;1563171;74;1102;-67
2024/04/10 01:20:46;;;;;;;;;;;21.70;51.10;;;;;;1550910;74;721;-70
2024/04/10 01:22:47;;;;;;;;;;;21.60;51.00;;;;;;1562242;75;1536;-71
2024/04/10 01:24:51;;;;;;;;;;;21.70;51.10;;;;;;1529373;77;1938;-71
2024/04/10 01:26:53;;;;;;;;;;;21.60;51.10;;;;;;1550256;74;1528;-72
2024/04/10 01:28:55;;;;;;;;;;;21.60;51.10;;;;;;1558839;74;1122;-72
2024/04/10 01:30:57;;;;;;;;;;;21.60;51.00;;;;;;1561254;75;800;-69
2024/04/10 01:32:58;;;;;;;;;;;21.50;51.10;;;;;;1556145;74;821;-68
2024/04/10 01:35:00;;;;;;;;;;;21.60;51.00;;;;;;1551165;74;721;-68
2024/04/10 01:37:02;;;;;;;;;;;21.60;51.10;;;;;;1552965;74;1565;-67
2024/04/10 01:39:05;;;;;;;;;;;21.50;51.00;;;;;;1555324;74;1156;-71
2024/04/10 01:41:08;;;;;;;;;;;21.60;51.10;;;;;;1558237;74;700;-68
2024/04/10 01:43:10;;;;;;;;;;;21.60;51.10;;;;;;1550023;74;728;-72
2024/04/10 01:45:12;;;;;;;;;;;21.60;51.10;;;;;;1561642;74;1912;-71
2024/04/10 01:47:14;;;;;;;;;;;21.60;51.10;;;;;;1557949;76;803;-69
2024/04/10 01:49:16;;;;;;;;;;;21.60;51.10;;;;;;1560419;74;1128;-67
2024/04/10 01:51:18;;;;;;;;;;;21.60;51.10;;;;;;1555175;75;1480;-70
2024/04/10 01:53:20;;;;;;;;;;;21.60;51.10;;;;;;1558996;76;719;-68
2024/04/10 01:55:22;;;;;;;;;;;21.60;51.10;;;;;;1548871;74;721;-67
2024/04/10 01:57:23;;;;;;;;;;;21.60;51.10;;;;;;1527337;76;679;-69
2024/04/10 01:59:25;;;;;;;;;;;21.70;51.20;;;;;;1511426;77;1113;-71
2024/04/10 02:01:27;;;;;;;;;;;21.60;51.10;;;;;;1522472;77;746;-71
2024/04/10 02:03:29;;;;;;;;;;;21.60;51.10;;;;;;1558328;75;670;-71
2024/04/10 02:05:31;;;;;;;;;;;21.60;51.10;;;;;;1558503;76;1935;-70
2024/04/10 02:07:33;;;;;;;;;;;21.50;51.10;;;;;;1562281;74;1162;-72
2024/04/10 02:09:35;;;;;;;;;;;21.70;51.30;;;;;;1555121;74;683;-69
2024/04/10 02:11:40;;;;;;;;;;;21.50;51.20;;;;;;1546238;74;733;-69
2024/04/10 02:13:41;;;;;;;;;;;21.60;51.20;;;;;;1549765;76;712;-68
2024/04/10 02:15:43;;;;;;;;;;;21.50;51.20;;;;;;1561984;74;677;-68
2024/04/10 02:17:45;;;;;;;;;;;21.60;51.10;;;;;;1557365;74;1147;-70
2024/04/10 02:19:49;;;;;;;;;;;21.50;51.20;;;;;;1561391;74;1641;-69
2024/04/10 02:21:52;;;;;;;;;;;21.60;51.20;;;;;;1554825;74;672;-68
2024/04/10 02:23:55;;;;;;;;;;;21.60;51.30;;;;;;1561894;74;686;-70
2024/04/10 02:25:57;;;;;;;;;;;21.60;51.30;;;;;;1563816;74;1928;-69
2024/04/10 02:27:59;;;;;;;;;;;21.60;51.30;;;;;;1558415;74;1146;-72
2024/04/10 02:30:01;;;;;;;;;;;21.60;51.20;;;;;;1559630;74;857;-72
2024/04/10 02:32:04;;;;;;;;;;;21.60;51.20;;;;;;1558104;74;628;-67
2024/04/10 02:34:06;;;;;;;;;;;21.50;51.30;;;;;;1559742;74;1541;-69
2024/04/10 02:36:08;;;;;;;;;;;21.60;51.30;;;;;;1559534;74;735;-68
2024/04/10 02:38:10;;;;;;;;;;;21.60;51.30;;;;;;1558032;74;1085;-73
2024/04/10 02:40:12;;;;;;;;;;;21.60;51.30;;;;;;1550900;74;762;-72
2024/04/10 02:42:14;;;;;;;;;;;21.60;51.30;;;;;;1558369;76;747;-69
2024/04/10 02:44:16;;;;;;;;;;;21.60;51.30;;;;;;1552150;74;745;-68
2024/04/10 02:46:18;;;;;;;;;;;21.50;51.30;;;;;;1565267;74;1914;-72
2024/04/10 02:48:19;;;;;;;;;;;21.60;51.40;;;;;;1559977;74;1315;-71
2024/04/10 02:50:21;;;;;;;;;;;21.60;51.40;;;;;;1561207;74;658;-70
2024/04/10 02:52:23;;;;;;;;;;;21.50;51.40;;;;;;1560190;75;718;-70
2024/04/10 02:54:25;;;;;;;;;;;21.60;51.40;;;;;;1544818;75;824;-72
2024/04/10 02:56:27;;;;;;;;;;;21.60;51.40;;;;;;1563258;76;635;-70
2024/04/10 02:58:29;;;;;;;;;;;21.60;51.50;;;;;;1562359;74;1123;-70
2024/04/10 03:00:31;;;;;;;;;;;21.60;51.40;;;;;;1561864;74;583;-66
2024/04/10 03:02:33;;;;;;;;;;;21.60;51.40;;;;;;1560075;74;1552;-67
2024/04/10 03:04:35;;;;;;;;;;;21.60;51.40;;;;;;1557216;74;715;-66
2024/04/10 03:06:38;;;;;;;;;;;21.60;51.40;;;;;;1552440;74;2175;-67
2024/04/10 03:08:40;;;;;;;;;;;21.60;51.40;;;;;;1548722;75;1169;-67
2024/04/10 03:10:41;;;;;;;;;;;21.60;51.40;;;;;;1542208;75;734;-69
2024/04/10 03:12:44;;;;;;;;;;;21.60;51.50;;;;;;1535040;75;738;-70
2024/04/10 03:14:47;;;;;;;;;;;21.50;51.50;;;;;;1546229;75;658;-66
2024/04/10 03:16:49;;;;;;;;;;;21.60;51.50;;;;;;1545211;75;1278;-68
2024/04/10 03:18:51;;;;;;;;;;;21.60;51.50;;;;;;1546624;75;1122;-70
2024/04/10 03:20:53;;;;;;;;;;;21.60;51.60;;;;;;1545665;75;702;-71
2024/04/10 03:22:55;;;;;;;;;;;21.60;51.60;;;;;;1545432;75;742;-70
2024/04/10 03:24:57;;;;;;;;;;;21.50;51.60;;;;;;1547119;75;1022;-71
2024/04/10 03:26:59;;;;;;;;;;;21.60;51.60;;;;;;1549575;75;1905;-68
2024/04/10 03:29:01;;;;;;;;;;;21.60;51.60;;;;;;1542207;75;1140;-67
2024/04/10 03:31:06;;;;;;;;;;;21.60;51.70;;;;;;1543249;75;1458;-67
2024/04/10 03:33:08;;;;;;;;;;;21.60;51.70;;;;;;1540681;75;765;-71
2024/04/10 03:35:10;;;;;;;;;;;21.60;51.70;;;;;;1547033;75;732;-72
2024/04/10 03:37:12;;;;;;;;;;;21.60;51.60;;;;;;1537943;75;715;-68
2024/04/10 03:39:14;;;;;;;;;;;21.60;51.60;;;;;;1546402;75;1117;-70
2024/04/10 03:41:16;;;;;;;;;;;21.60;51.60;;;;;;1547074;75;837;-68
2024/04/10 03:43:18;;;;;;;;;;;21.60;51.70;;;;;;1543341;75;1571;-71
2024/04/10 03:45:19;;;;;;;;;;;21.60;51.70;;;;;;1539785;75;1916;-70
2024/04/10 03:47:22;;;;;;;;;;;21.50;51.60;;;;;;1541922;75;815;-72
2024/04/10 03:49:23;;;;;;;;;;;21.50;51.60;;;;;;1542607;75;1152;-69
2024/04/10 03:51:25;;;;;;;;;;;21.50;51.60;;;;;;1546215;75;657;-74
2024/04/10 03:53:27;;;;;;;;;;;21.60;51.60;;;;;;1541568;75;777;-73
2024/04/10 03:55:29;;;;;;;;;;;21.60;51.50;;;;;;1541838;75;729;-69
2024/04/10 03:57:31;;;;;;;;;;;21.60;51.50;;;;;;1542230;75;1355;-68
2024/04/10 03:59:33;;;;;;;;;;;21.50;51.50;;;;;;1539291;75;940;-68
2024/04/10 04:01:35;;;;;;;;;;;21.60;51.50;;;;;;1538248;75;578;-69
2024/04/10 04:03:38;;;;;;;;;;;21.50;51.50;;;;;;1541549;75;739;-65
2024/04/10 04:05:39;;;;;;;;;;;21.60;51.40;;;;;;1543673;75;1908;-66
2024/04/10 04:07:41;;;;;;;;;;;21.50;51.40;;;;;;1539832;75;1176;-64
2024/04/10 04:09:43;;;;;;;;;;;21.60;51.40;;;;;;1552850;75;685;-71
2024/04/10 04:11:45;;;;;;;;;;;21.60;51.40;;;;;;1557669;75;1560;-70
2024/04/10 04:13:47;;;;;;;;;;;21.60;51.30;;;;;;1551029;75;796;-67
2024/04/10 04:15:49;;;;;;;;;;;21.60;51.30;;;;;;1552720;75;789;-70
2024/04/10 04:17:51;;;;;;;;;;;21.60;51.30;;;;;;1544454;75;1125;-70
2024/04/10 04:19:53;;;;;;;;;;;21.50;51.20;;;;;;1547961;75;667;-74
2024/04/10 04:21:55;;;;;;;;;;;21.50;51.30;;;;;;1554261;75;666;-72
2024/04/10 04:23:57;;;;;;;;;;;21.50;51.30;;;;;;1545724;75;798;-69
2024/04/10 04:25:58;;;;;;;;;;;21.60;51.30;;;;;;1552615;75;1924;-67
2024/04/10 04:28:00;;;;;;;;;;;21.50;51.30;;;;;;1551589;75;1129;-69
2024/04/10 04:30:02;;;;;;;;;;;21.50;51.40;;;;;;1544690;75;712;-70
2024/04/10 04:32:05;;;;;;;;;;;21.50;51.40;;;;;;1554828;75;535;-67
2024/04/10 04:34:12;;;;;;;;;;;21.60;51.30;;;;;;1549343;75;686;-69
2024/04/10 04:36:10;;;;;;;;;;;21.60;51.40;;;;;;1551765;75;1532;-71
2024/04/10 04:38:12;;;;;;;;;;;21.60;51.40;;;;;;1552765;75;1136;-68
2024/04/10 04:40:14;;;;;;;;;;;21.60;51.40;;;;;;1554060;75;1345;-67
2024/04/10 04:42:17;;;;;;;;;;;21.60;51.40;;;;;;1552233;75;668;-69
2024/04/10 04:44:19;;;;;;;;;;;21.60;51.40;;;;;;1545641;75;748;-66
2024/04/10 04:46:21;;;;;;;;;;;21.60;51.40;;;;;;1545054;75;1940;-72
2024/04/10 04:48:23;;;;;;;;;;;21.60;51.50;;;;;;1551749;75;1168;-68
2024/04/10 04:50:25;;;;;;;;;;;21.60;51.60;;;;;;1553848;75;775;-69
2024/04/10 04:52:27;;;;;;;;;;;21.60;51.60;;;;;;1550099;75;730;-66
2024/04/10 04:54:29;;;;;;;;;;;21.60;51.70;;;;;;1549178;75;1553;-66
2024/04/10 04:56:31;;;;;;;;;;;21.60;51.60;;;;;;1554795;75;866;-67
2024/04/10 04:58:33;;;;;;;;;;;21.60;51.60;;;;;;1550387;75;1141;-67
2024/04/10 05:00:34;;;;;;;;;;;21.60;51.50;;;;;;1550577;75;775;-67
2024/04/10 05:02:36;;;;;;;;;;;21.60;51.50;;;;;;1540135;75;725;-71
2024/04/10 05:06:58;;;;;;;;;;;21.60;51.50;;;;;;1553627;75;1915;-69
2024/04/10 05:09:00;;;;;;;;;;;21.60;51.50;;;;;;1544000;75;1545;-64
2024/04/10 05:11:08;;;;;;;;;;;21.60;51.50;;;;;;1535794;75;620;-67
2024/04/10 05:13:10;;;;;;;;;;;21.60;51.40;;;;;;1543681;75;714;-64
2024/04/10 05:15:13;;;;;;;;;;;21.60;51.50;;;;;;1545884;75;827;-68
2024/04/10 05:17:15;;;;;;;;;;;21.60;51.50;;;;;;1541120;75;816;-68
2024/04/10 05:19:16;;;;;;;;;;;21.50;51.50;;;;;;1539514;75;1140;-67
2024/04/10 05:21:18;;;;;;;;;;;21.50;51.40;;;;;;1547312;75;809;-68
2024/04/10 05:23:20;;;;;;;;;;;21.60;51.40;;;;;;1541207;75;1589;-67
2024/04/10 05:25:22;;;;;;;;;;;21.50;51.40;;;;;;1542226;76;775;-69
2024/04/10 05:27:25;;;;;;;;;;;21.60;51.40;;;;;;1545223;75;1941;-65
2024/04/10 05:29:27;;;;;;;;;;;21.60;51.40;;;;;;1549937;75;1102;-68
2024/04/10 05:31:29;;;;;;;;;;;21.60;51.40;;;;;;1548682;75;721;-67
2024/04/10 05:33:31;;;;;;;;;;;21.60;51.40;;;;;;1542093;75;679;-68
2024/04/10 05:35:32;;;;;;;;;;;21.50;51.30;;;;;;1544101;75;763;-69
2024/04/10 05:37:34;;;;;;;;;;;21.60;51.30;;;;;;1541177;75;1619;-67
2024/04/10 05:39:36;;;;;;;;;;;21.50;51.30;;;;;;1542323;75;773;-64
2024/04/10 05:41:38;;;;;;;;;;;21.50;51.30;;;;;;1537502;75;685;-64
2024/04/10 05:43:40;;;;;;;;;;;21.60;51.30;;;;;;1543747;75;759;-64
2024/04/10 05:45:42;;;;;;;;;;;21.60;51.30;;;;;;1542149;75;649;-66
2024/04/10 05:47:50;;;;;;;;;;;21.60;51.30;;;;;;1543828;75;1935;-65
2024/04/10 05:49:52;;;;;;;;;;;21.60;51.20;;;;;;1532493;75;1587;-65
2024/04/10 05:51:54;;;;;;;;;;;21.50;51.20;;;;;;1546643;75;1179;-69
2024/04/10 05:53:56;;;;;;;;;;;21.50;51.20;;;;;;1538239;75;675;-70
2024/04/10 05:55:59;;;;;;;;;;;21.50;51.20;;;;;;1540042;75;757;-66
2024/04/10 05:58:01;;;;;;;;;;;21.50;51.10;;;;;;1550166;75;1967;-66
2024/04/10 06:00:03;;;;;;;;;;;21.50;51.20;;;;;;1546783;75;715;-69
2024/04/10 06:02:05;;;;;;;;;;;21.50;51.20;;;;;;1542663;75;750;-66
2024/04/10 06:04:07;;;;;;;;;;;21.50;51.20;;;;;;1535472;75;1556;-67
2024/04/10 06:06:12;;;;;;;;;;;21.50;51.10;;;;;;1545459;75;1973;-69
2024/04/10 06:08:13;;;;;;;;;;;21.50;51.10;;;;;;1550807;75;1138;-65
2024/04/10 06:10:15;;;;;;;;;;;21.50;51.10;;;;;;1555838;75;1053;-66
2024/04/10 06:12:17;;;;;;;;;;;21.60;51.10;;;;;;1564426;76;667;-67
2024/04/10 06:14:18;;;;;;;;;;;21.50;51.10;;;;;;1561798;74;842;-66
2024/04/10 06:16:20;;;;;;;;;;;21.50;51.10;;;;;;1562108;74;805;-68
2024/04/10 06:18:23;;;;;;;;;;;21.50;51.00;;;;;;1560075;74;1330;-68
2024/04/10 06:20:25;;;;;;;;;;;21.50;51.00;;;;;;1561197;74;605;-69
2024/04/10 06:22:27;;;;;;;;;;;21.50;51.00;;;;;;1552158;74;729;-71
2024/04/10 06:24:29;;;;;;;;;;;21.50;51.00;;;;;;1557688;75;724;-71
2024/04/10 06:26:31;;;;;;;;;;;21.50;51.00;;;;;;1561832;74;1911;-68
2024/04/10 06:28:33;;;;;;;;;;;21.50;51.00;;;;;;1558253;74;1138;-65
2024/04/10 06:30:35;;;;;;;;;;;21.50;51.00;;;;;;1558112;74;800;-66
2024/04/10 06:32:37;;;;;;;;;;;21.50;50.90;;;;;;1561000;76;1329;-67
2024/04/10 06:34:39;;;;;;;;;;;21.50;50.90;;;;;;1561815;74;812;-66
2024/04/10 06:36:41;;;;;;;;;;;21.50;50.90;;;;;;1550703;74;713;-69
2024/04/10 06:38:43;;;;;;;;;;;21.40;50.80;;;;;;1563703;74;1249;-69
2024/04/10 06:40:55;;;;;;;;;;;21.50;50.90;;;;;;1562178;74;670;-66
2024/04/10 06:42:57;;;;;;;;;;;21.50;50.90;;;;;;1564632;74;721;-68
2024/04/10 06:44:58;;;;;;;;;;;21.50;50.80;;;;;;1557002;74;763;-66
2024/04/10 06:47:00;;;;;;;;;;;21.40;50.70;;;;;;1555995;74;1949;-64
2024/04/10 06:49:02;;;;;;;;;;;21.40;50.70;;;;;;1559847;74;1177;-67
2024/04/10 06:51:05;;;;;;;;;;;21.40;50.70;;;;;;1547712;74;678;-67
2024/04/10 06:53:09;;;;;;;;;;;21.50;50.80;;;;;;1557898;74;819;-68
2024/04/10 06:55:11;;;;;;;;;;;21.40;50.60;;;;;;1561460;74;696;-66
2024/04/10 06:57:12;;;;;;;;;;;21.50;50.70;;;;;;1562032;75;735;-68
2024/04/10 06:59:15;;;;;;;;;;;21.40;50.60;;;;;;1566619;74;1098;-70
2024/04/10 07:01:17;;;;;;;;;;;21.40;50.60;;;;;;1563737;75;1322;-66
2024/04/10 07:03:19;;;;;;;;;;;21.50;50.70;;;;;;1553153;74;691;-67
2024/04/10 07:05:22;;;;;;;;;;;21.50;50.70;;;;;;1558926;76;748;-66
2024/04/10 07:07:23;;;;;;;;;;;21.40;50.60;;;;;;1563644;74;1926;-69
2024/04/10 07:09:26;;;;;;;;;;;21.40;50.50;;;;;;1563151;74;1143;-70
2024/04/10 07:11:28;;;;;;;;;;;21.40;50.50;;;;;;1549958;75;671;-68
2024/04/10 07:13:30;;;;;;;;;;;21.40;50.50;;;;;;1539912;75;678;-66
2024/04/10 07:15:32;;;;;;;;;;;21.40;50.50;;;;;;1545917;75;1552;-67
2024/04/10 07:17:34;;;;;;;;;;;21.40;50.50;;;;;;1544749;75;1205;-66
2024/04/10 07:19:36;;;;;;;;;;;21.40;50.50;;;;;;1542901;75;703;-68
2024/04/10 07:21:38;;;;;;;;;;;21.50;50.50;;;;;;1543442;75;683;-66
2024/04/10 07:23:40;;;;;;;;;;;21.40;50.50;;;;;;1547848;75;803;-68
2024/04/10 07:25:42;;;;;;;;;;;21.40;50.50;;;;;;1541064;75;710;-65
2024/04/10 07:27:45;;;;;;;;;;;21.40;50.40;;;;;;1545168;75;1928;-67
2024/04/10 07:29:47;;;;;;;;;;;21.40;50.40;;;;;;1546263;75;1572;-66
2024/04/10 07:31:49;;;;;;;;;;;21.40;50.50;;;;;;1539631;75;748;-69
2024/04/10 07:33:55;;;;;;;;;;;21.40;50.40;;;;;;1540691;75;739;-67
2024/04/10 07:35:54;;;;;;;;;;;21.50;50.50;;;;;;1546244;75;1159;-66
2024/04/10 07:37:56;;;;;;;;;;;21.40;50.30;;;;;;1538503;75;1133;-66
2024/04/10 07:39:58;;;;;;;;;;;21.40;50.40;;;;;;1535291;75;717;-67
2024/04/10 07:42:00;;;;;;;;;;;21.40;50.30;;;;;;1540039;75;656;-67
2024/04/10 07:44:02;;;;;;;;;;;21.50;50.50;;;;;;1534596;75;1655;-69
2024/04/10 07:46:07;;;;;;;;;;;21.50;50.40;;;;;;1544870;75;660;-70
2024/04/10 07:48:09;;;;;;;;;;;21.40;50.30;;;;;;1540642;75;1927;-69
2024/04/10 07:50:11;;;;;;;;;;;21.40;50.30;;;;;;1543132;75;771;-67
2024/04/10 07:52:13;;;;;;;;;;;21.40;50.20;;;;;;1540063;75;686;-67
2024/04/10 07:54:15;;;;;;;;;;;21.40;50.30;;;;;;1548725;75;716;-67
2024/04/10 07:56:17;;;;;;;;;;;21.40;50.20;;;;;;1540448;75;772;-70
2024/04/10 07:58:19;;;;;;;;;;;21.40;50.20;;;;;;1545492;75;1176;-67
2024/04/10 08:00:21;;;;;;;;;;;21.50;50.40;;;;;;1548777;75;1317;-71
2024/04/10 08:02:23;;;;;;;;;;;21.40;50.20;;;;;;1543121;75;704;-69
2024/04/10 08:04:25;;;;;;;;;;;21.40;50.20;;;;;;1534446;75;808;-70
2024/04/10 08:06:29;;;;;;;;;;;21.40;50.20;;;;;;1545643;75;721;-65
2024/04/10 08:08:30;;;;;;;;;;;21.30;50.20;;;;;;1541900;75;1942;-66
2024/04/10 08:10:32;;;;;;;;;;;21.50;50.30;;;;;;1545786;75;1471;-65
2024/04/10 08:12:34;;;;;;;;;;;21.40;50.10;;;;;;1542796;75;634;-66
2024/04/10 08:14:36;;;;;;;;;;;21.40;50.20;;;;;;1546622;75;1576;-68
2024/04/10 08:16:38;;;;;;;;;;;21.40;50.20;;;;;;1541445;75;662;-69
2024/04/10 08:18:40;;;;;;;;;;;21.40;50.10;;;;;;1539475;75;1184;-67
2024/04/10 08:20:42;;;;;;;;;;;21.40;50.10;;;;;;1539380;75;909;-69
2024/04/10 08:22:44;;;;;;;;;;;21.40;50.00;;;;;;1542921;75;738;-69
2024/04/10 08:24:46;;;;;;;;;;;21.40;50.10;;;;;;1540006;75;794;-66
2024/04/10 08:26:48;;;;;;;;;;;21.40;50.00;;;;;;1533752;75;747;-67
2024/04/10 08:28:50;;;;;;;;;;;21.50;50.20;;;;;;1542888;75;1951;-66
2024/04/10 08:30:54;;;;;;;;;;;21.40;50.00;;;;;;1545155;76;735;-67
2024/04/10 08:32:56;;;;;;;;;;;21.40;50.00;;;;;;1544173;75;699;-69
2024/04/10 08:34:57;;;;;;;;;;;21.40;50.00;;;;;;1538623;75;628;-72
2024/04/10 08:36:59;;;;;;;;;;;21.40;50.00;;;;;;1537855;75;819;-67
2024/04/10 08:39:01;;;;;;;;;;;21.50;50.20;;;;;;1531074;75;1140;-69
2024/04/10 08:41:03;;;;;;;;;;;21.40;50.00;;;;;;1538535;76;735;-69
2024/04/10 08:43:08;;;;;;;;;;;21.40;50.00;;;;;;1546559;75;1559;-69
2024/04/10 08:45:10;;;;;;;;;;;21.40;50.00;;;;;;1540547;75;665;-70
2024/04/10 08:47:12;;;;;;;;;;;21.40;50.00;;;;;;1541668;76;1913;-64
2024/04/10 08:49:15;;;;;;;;;;;21.50;50.10;;;;;;1541618;75;1148;-68
2024/04/10 08:51:17;;;;;;;;;;;21.40;50.00;;;;;;1536155;75;695;-67
2024/04/10 08:53:19;;;;;;;;;;;21.50;50.10;;;;;;1541737;76;737;-66
2024/04/10 08:55:20;;;;;;;;;;;21.40;50.00;;;;;;1537928;75;753;-69
2024/04/10 08:57:22;;;;;;;;;;;21.40;50.00;;;;;;1543993;75;1555;-71
2024/04/10 08:59:27;;;;;;;;;;;21.50;50.10;;;;;;1540905;75;1084;-67
2024/04/10 09:01:36;;;;;;;;;;;21.50;50.10;;;;;;1537658;76;1699;-64
2024/04/10 09:03:37;;;;;;;;;;;21.50;50.10;;;;;;1535095;75;2000;-70
2024/04/10 09:05:39;;;;;;;;;;;21.50;50.10;;;;;;1543409;75;730;-69
2024/04/10 09:07:42;;;;;;;;;;;21.50;50.00;;;;;;1538002;75;1952;-70
2024/04/10 09:09:44;;;;;;;;;;;21.40;49.90;;;;;;1533767;75;788;-69
2024/04/10 09:11:47;;;;;;;;;;;21.50;50.00;;;;;;1536628;75;1219;-68
2024/04/10 09:13:51;;;;;;;;;;;21.50;50.00;;;;;;1541705;75;2301;-70
2024/04/10 09:15:59;;;;;;;;;;;21.50;50.00;;;;;;1542056;75;1788;-67
2024/04/10 09:18:00;;;;;;;;;;;21.50;49.90;;;;;;1548632;75;1205;-66
2024/04/10 09:20:17;;;;;;;;;;;21.40;49.80;;;;;;1550526;75;643;-66
2024/04/10 09:22:19;;;;;;;;;;;21.50;50.00;;;;;;1546254;75;614;-67
2024/04/10 09:24:23;;;;;;;;;;;21.40;49.80;;;;;;1543546;75;653;-67
2024/04/10 09:26:25;;;;;;;;;;;21.50;49.90;;;;;;1543784;76;1708;-68
2024/04/10 09:28:26;;;;;;;;;;;21.50;49.90;;;;;;1540907;75;1936;-68
2024/04/10 09:30:28;;;;;;;;;;;21.50;49.90;;;;;;1547871;75;758;-66
2024/04/10 09:32:31;;;;;;;;;;;21.50;50.00;;;;;;1539952;75;702;-68
2024/04/10 09:34:34;;;;;;;;;;;21.50;49.90;;;;;;1544188;75;628;-67
2024/04/10 09:36:36;;;;;;;;;;;21.50;49.90;;;;;;1543603;75;772;-68
2024/04/10 09:38:39;;;;;;;;;;;21.50;49.90;;;;;;1547579;75;1598;-67
2024/04/10 09:40:41;;;;;;;;;;;21.50;49.90;;;;;;1547269;75;682;-69
2024/04/10 09:42:44;;;;;;;;;;;21.50;49.90;;;;;;1548251;75;770;-67
2024/04/10 09:44:46;;;;;;;;;;;21.50;49.90;;;;;;1545113;75;751;-67
2024/04/10 09:46:50;;;;;;;;;;;21.50;49.90;;;;;;1549873;75;578;-65
2024/04/10 09:48:52;;;;;;;;;;;21.50;49.80;;;;;;1538731;75;1927;-67
2024/04/10 09:50:54;;;;;;;;;;;21.50;49.80;;;;;;1533369;76;676;-65
2024/04/10 09:52:56;;;;;;;;;;;21.50;49.90;;;;;;1540222;75;1470;-66
2024/04/10 09:54:57;;;;;;;;;;;21.60;49.80;;;;;;1545723;75;778;-67
2024/04/10 09:56:59;;;;;;;;;;;21.50;49.80;;;;;;1538329;75;712;-68
2024/04/10 09:59:01;;;;;;;;;;;21.50;49.80;;;;;;1534145;75;1156;-68
2024/04/10 10:01:03;;;;;;;;;;;21.50;49.80;;;;;;1542073;75;727;-66
2024/04/10 10:03:06;;;;;;;;;;;21.60;49.80;;;;;;1545895;75;662;-68
2024/04/10 10:05:20;;;;;;;;;;;21.60;49.80;;;;;;1546844;75;738;-67
2024/04/10 10:07:25;;;;;;;;;;;21.50;49.70;;;;;;1542207;75;1319;-68
2024/04/10 10:09:27;;;;;;;;;;;21.60;49.70;;;;;;1542791;75;1121;-69
2024/04/10 10:11:29;;;;;;;;;;;21.50;49.70;;;;;;1544148;75;1079;-66
2024/04/10 10:13:31;;;;;;;;;;;21.50;49.70;;;;;;1550886;75;677;-65
2024/04/10 10:15:33;;;;;;;;;;;21.60;49.70;;;;;;1545475;76;735;-66
2024/04/10 10:17:35;;;;;;;;;;;21.60;49.70;;;;;;1551837;75;807;-67
2024/04/10 10:19:37;;;;;;;;;;;21.50;49.70;;;;;;1549113;75;781;-67
2024/04/10 10:21:39;;;;;;;;;;;21.50;49.60;;;;;;1547143;76;1579;-67
2024/04/10 10:23:41;;;;;;;;;;;21.60;49.70;;;;;;1550563;76;721;-67
2024/04/10 10:25:43;;;;;;;;;;;21.50;49.60;;;;;;1551752;75;680;-69
2024/04/10 10:27:46;;;;;;;;;;;21.50;49.70;;;;;;1553997;75;1923;-67
2024/04/10 10:29:48;;;;;;;;;;;21.50;49.70;;;;;;1551386;75;656;-68
2024/04/10 10:31:49;;;;;;;;;;;21.60;49.60;;;;;;1551239;75;775;-68
2024/04/10 10:33:53;;;;;;;;;;;21.60;49.60;;;;;;1544240;75;682;-69
2024/04/10 10:35:56;;;;;;;;;;;21.60;49.60;;;;;;1546048;75;1555;-68
2024/04/10 10:37:58;;;;;;;;;;;21.60;49.60;;;;;;1541749;75;1085;-69
2024/04/10 10:40:01;;;;;;;;;;;21.60;49.50;;;;;;1554126;75;776;-66
2024/04/10 10:42:03;;;;;;;;;;;21.60;49.50;;;;;;1549637;75;705;-66
2024/04/10 10:44:05;;;;;;;;;;;21.50;49.60;;;;;;1552949;75;733;-67
2024/04/10 10:46:08;;;;;;;;;;;21.60;49.50;;;;;;1556428;76;816;-67
2024/04/10 10:48:10;;;;;;;;;;;21.60;49.50;;;;;;1541553;75;1940;-70
2024/04/10 10:50:11;;;;;;;;;;;21.60;49.50;;;;;;1526956;76;1477;-69
2024/04/10 10:52:13;;;;;;;;;;;21.60;49.50;;;;;;1553932;75;724;-67
2024/04/10 10:54:15;;;;;;;;;;;21.50;49.50;;;;;;1549912;76;606;-66
2024/04/10 10:56:24;;;;;;;;;;;21.50;49.50;;;;;;1551658;75;719;-68
2024/04/10 10:58:26;;;;;;;;;;;21.50;49.50;;;;;;1545377;75;1156;-67
2024/04/10 11:00:30;;;;;;;;;;;21.60;49.50;;;;;;1551705;75;701;-68
2024/04/10 11:02:32;;;;;;;;;;;21.60;49.50;;;;;;1550850;75;685;-67
2024/04/10 11:04:34;;;;;;;;;;;21.60;49.50;;;;;;1556224;76;1357;-66
2024/04/10 11:06:36;;;;;;;;;;;21.60;49.50;;;;;;1547546;75;713;-67
2024/04/10 11:08:38;;;;;;;;;;;21.50;49.50;;;;;;1553008;75;1959;-68
2024/04/10 11:10:40;;;;;;;;;;;21.60;49.50;;;;;;1552552;75;721;-68
2024/04/10 11:12:42;;;;;;;;;;;21.60;49.50;;;;;;1550936;75;1044;-67
2024/04/10 11:14:44;;;;;;;;;;;21.60;49.50;;;;;;1557615;74;703;-68
2024/04/10 11:16:46;;;;;;;;;;;21.50;49.50;;;;;;1563973;75;696;-68
2024/04/10 11:18:48;;;;;;;;;;;21.60;49.50;;;;;;1561734;76;1187;-68
2024/04/10 11:20:50;;;;;;;;;;;21.60;49.40;;;;;;1502861;77;879;-66
2024/04/10 11:22:53;;;;;;;;;;;21.60;49.40;;;;;;1562104;74;716;-66
2024/04/10 11:24:55;;;;;;;;;;;21.60;49.40;;;;;;1559403;74;1893;-69
2024/04/10 11:26:57;;;;;;;;;;;21.60;49.40;;;;;;1560046;75;685;-69
2024/04/10 11:28:59;;;;;;;;;;;21.60;49.40;;;;;;1566449;74;1936;-66
2024/04/10 11:31:01;;;;;;;;;;;21.60;49.40;;;;;;1566516;75;704;-67
2024/04/10 11:33:07;;;;;;;;;;;21.60;49.40;;;;;;1564577;75;1434;-68
2024/04/10 11:35:13;;;;;;;;;;;21.60;49.40;;;;;;1568498;75;1646;-68
2024/04/10 11:37:11;;;;;;;;;;;21.50;49.40;;;;;;1566776;74;1681;-71
2024/04/10 11:39:13;;;;;;;;;;;21.60;49.30;;;;;;1560800;74;1125;-67
2024/04/10 11:41:15;;;;;;;;;;;21.50;49.30;;;;;;1558574;74;751;-67
2024/04/10 11:43:17;;;;;;;;;;;21.50;49.30;;;;;;1564440;74;733;-68
2024/04/10 11:45:19;;;;;;;;;;;21.50;49.30;;;;;;1572858;74;665;-68
2024/04/10 11:47:21;;;;;;;;;;;21.50;49.20;;;;;;1568727;74;1844;-67
2024/04/10 11:49:22;;;;;;;;;;;21.50;49.30;;;;;;1561780;74;1949;-68
2024/04/10 11:51:24;;;;;;;;;;;21.60;49.20;;;;;;1565543;74;810;-70
2024/04/10 11:53:28;;;;;;;;;;;21.60;49.20;;;;;;1548584;74;682;-68
2024/04/10 11:55:30;;;;;;;;;;;21.60;49.20;;;;;;1563452;75;772;-67
2024/04/10 11:57:32;;;;;;;;;;;21.60;49.30;;;;;;1562213;74;832;-67
2024/04/10 11:59:34;;;;;;;;;;;21.50;49.20;;;;;;1563273;74;1337;-67
2024/04/10 12:01:36;;;;;;;;;;;21.60;49.20;;;;;;1572671;74;721;-69
2024/04/10 12:03:38;;;;;;;;;;;21.60;49.20;;;;;;1560903;75;679;-66
2024/04/10 12:05:40;;;;;;;;;;;21.60;49.20;;;;;;1562466;74;755;-66
2024/04/10 12:07:41;;;;;;;;;;;21.50;49.20;;;;;;1555683;75;1130;-66
2024/04/10 12:09:43;;;;;;;;;;;21.60;49.20;;;;;;1565870;74;1926;-70
2024/04/10 12:11:45;;;;;;;;;;;21.60;49.20;;;;;;1544032;76;1059;-70